createdAt,value
2019-03-23T00:00:27.823Z,8.70
2019-03-23T00:01:27.995Z,8.67
2019-03-23T00:02:28.171Z,8.69
2019-03-23T00:03:28.344Z,8.26
2019-03-23T00:04:28.513Z,8.41
2019-03-23T00:05:28.688Z,8.45
2019-03-23T00:06:31.075Z,8.38
2019-03-23T00:07:29.042Z,8.45
2019-03-23T00:08:29.211Z,8.45
2019-03-23T00:09:29.380Z,8.38
2019-03-23T00:10:29.577Z,8.44
2019-03-23T00:11:29.721Z,8.27
2019-03-23T00:12:29.897Z,8.28
2019-03-23T00:13:30.074Z,8.28
2019-03-23T00:14:30.246Z,8.31
2019-03-23T00:15:30.417Z,8.36
2019-03-23T00:16:30.589Z,8.34
2019-03-23T00:17:30.764Z,8.31
2019-03-23T00:18:30.937Z,8.30
2019-03-23T00:19:31.107Z,8.26
2019-03-23T00:20:31.275Z,8.27
2019-03-23T00:21:31.445Z,8.15
2019-03-23T00:22:31.629Z,8.05
2019-03-23T00:23:31.793Z,8.05
2019-03-23T00:24:32.009Z,8.00
2019-03-23T00:25:32.201Z,8.15
2019-03-23T00:26:32.362Z,8.05
2019-03-23T00:27:32.511Z,8.12
2019-03-23T00:28:32.674Z,8.23
2019-03-23T00:29:32.844Z,8.26
2019-03-23T00:30:33.012Z,8.27
2019-03-23T00:31:33.189Z,8.26
2019-03-23T00:32:33.357Z,8.28
2019-03-23T00:33:33.517Z,8.27
2019-03-23T00:34:33.691Z,8.30
2019-03-23T00:35:33.848Z,8.31
2019-03-23T00:36:41.453Z,8.31
2019-03-23T00:37:34.175Z,8.13
2019-03-23T00:38:34.344Z,8.15
2019-03-23T00:39:34.514Z,8.13
2019-03-23T00:40:34.675Z,8.13
2019-03-23T00:41:34.843Z,8.13
2019-03-23T00:42:35.020Z,8.09
2019-03-23T00:43:35.184Z,8.09
2019-03-23T00:44:35.347Z,8.09
2019-03-23T00:45:35.522Z,8.16
2019-03-23T00:46:35.694Z,8.13
2019-03-23T00:47:35.861Z,8.13
2019-03-23T00:48:36.051Z,8.13
2019-03-23T00:49:36.188Z,8.16
2019-03-23T00:50:36.370Z,8.12
2019-03-23T00:51:36.515Z,8.13
2019-03-23T00:52:36.689Z,8.12
2019-03-23T00:53:36.854Z,8.12
2019-03-23T00:54:37.024Z,8.13
2019-03-23T00:55:37.194Z,8.16
2019-03-23T00:56:37.367Z,8.05
2019-03-23T00:57:37.537Z,8.01
2019-03-23T00:58:37.711Z,8.12
2019-03-23T00:59:37.895Z,8.15
2019-03-23T01:00:38.051Z,8.08
2019-03-23T01:01:38.215Z,8.13
2019-03-23T01:02:38.396Z,8.05
2019-03-23T01:03:38.569Z,8.01
2019-03-23T01:04:38.744Z,8.06
2019-03-23T01:05:38.919Z,8.03
2019-03-23T01:06:39.089Z,8.10
2019-03-23T01:07:39.264Z,8.13
2019-03-23T01:08:39.436Z,8.01
2019-03-23T01:09:39.615Z,8.16
2019-03-23T01:10:39.788Z,8.05
2019-03-23T01:11:39.960Z,8.05
2019-03-23T01:12:40.141Z,7.93
2019-03-23T01:13:40.308Z,7.90
2019-03-23T01:14:40.491Z,7.97
2019-03-23T01:15:40.660Z,7.91
2019-03-23T01:16:40.823Z,7.87
2019-03-23T01:17:40.998Z,7.73
2019-03-23T01:18:41.168Z,7.79
2019-03-23T01:19:41.343Z,7.77
2019-03-23T01:20:49.322Z,7.80
2019-03-23T01:21:41.689Z,7.77
2019-03-23T01:22:41.861Z,7.66
2019-03-23T01:23:42.032Z,7.67
2019-03-23T01:24:42.205Z,7.66
2019-03-23T01:25:42.389Z,7.58
2019-03-23T01:26:42.557Z,7.61
2019-03-23T01:27:42.734Z,7.56
2019-03-23T01:28:42.903Z,7.53
2019-03-23T01:29:43.078Z,7.47
2019-03-23T01:30:43.263Z,7.57
2019-03-23T01:31:43.427Z,7.60
2019-03-23T01:32:43.598Z,7.54
2019-03-23T01:33:43.771Z,7.69
2019-03-23T01:34:43.940Z,7.61
2019-03-23T01:35:44.117Z,7.57
2019-03-23T01:36:44.290Z,7.54
2019-03-23T01:37:44.463Z,7.69
2019-03-23T01:38:44.634Z,7.58
2019-03-23T01:39:44.807Z,7.56
2019-03-23T01:40:44.983Z,7.51
2019-03-23T01:41:45.155Z,7.51
2019-03-23T01:42:45.327Z,7.50
2019-03-23T01:43:45.504Z,7.51
2019-03-23T01:44:45.674Z,7.54
2019-03-23T01:45:45.850Z,7.45
2019-03-23T01:46:46.023Z,7.39
2019-03-23T01:47:46.197Z,7.40
2019-03-23T01:48:46.367Z,7.39
2019-03-23T01:49:46.542Z,7.38
2019-03-23T01:50:46.716Z,7.40
2019-03-23T01:51:46.888Z,7.33
2019-03-23T01:52:47.064Z,7.29
2019-03-23T01:53:47.237Z,7.33
2019-03-23T01:55:47.588Z,7.29
2019-03-23T01:56:47.750Z,7.24
2019-03-23T01:57:47.923Z,7.20
2019-03-23T01:58:48.098Z,7.24
2019-03-23T01:59:48.271Z,7.21
2019-03-23T02:00:48.449Z,7.11
2019-03-23T02:01:48.617Z,7.20
2019-03-23T02:02:48.790Z,7.21
2019-03-23T02:03:48.960Z,7.15
2019-03-23T02:04:49.145Z,7.23
2019-03-23T02:05:49.310Z,7.17
2019-03-23T02:06:49.492Z,7.15
2019-03-23T02:07:49.655Z,7.14
2019-03-23T02:08:49.844Z,7.07
2019-03-23T02:09:49.996Z,7.11
2019-03-23T02:10:50.174Z,7.11
2019-03-23T02:11:50.338Z,7.00
2019-03-23T02:12:50.518Z,7.06
2019-03-23T02:13:50.691Z,6.99
2019-03-23T02:14:50.863Z,7.00
2019-03-23T02:15:51.033Z,6.92
2019-03-23T02:16:51.201Z,6.79
2019-03-23T02:17:51.385Z,6.85
2019-03-23T02:18:51.555Z,6.87
2019-03-23T02:19:51.714Z,6.81
2019-03-23T02:20:51.891Z,6.84
2019-03-23T02:21:52.063Z,6.82
2019-03-23T02:22:52.292Z,6.89
2019-03-23T02:23:52.410Z,6.88
2019-03-23T02:24:52.581Z,6.88
2019-03-23T02:25:52.753Z,6.81
2019-03-23T02:26:52.926Z,6.79
2019-03-23T02:27:53.104Z,6.74
2019-03-23T02:28:53.281Z,6.79
2019-03-23T02:29:53.447Z,6.64
2019-03-23T02:30:53.611Z,6.49
2019-03-23T02:31:53.788Z,6.44
2019-03-23T02:32:53.957Z,6.44
2019-03-23T02:33:54.132Z,6.36
2019-03-23T02:34:54.291Z,6.36
2019-03-23T02:35:54.470Z,6.33
2019-03-23T02:36:54.630Z,6.28
2019-03-23T02:37:54.807Z,6.30
2019-03-23T02:38:54.969Z,6.41
2019-03-23T02:39:55.141Z,6.36
2019-03-23T02:40:55.304Z,6.44
2019-03-23T02:41:55.492Z,6.36
2019-03-23T02:42:55.651Z,6.46
2019-03-23T02:43:55.822Z,6.41
2019-03-23T02:44:55.998Z,6.44
2019-03-23T02:45:56.164Z,6.45
2019-03-23T02:46:56.321Z,6.59
2019-03-23T02:47:56.497Z,6.62
2019-03-23T02:48:56.671Z,6.54
2019-03-23T02:49:56.826Z,6.42
2019-03-23T02:50:57.004Z,6.38
2019-03-23T02:51:57.177Z,6.27
2019-03-23T02:52:57.346Z,6.22
2019-03-23T02:53:57.545Z,6.01
2019-03-23T02:54:57.694Z,5.86
2019-03-23T02:55:57.861Z,5.84
2019-03-23T02:56:58.033Z,5.94
2019-03-23T02:57:58.201Z,5.80
2019-03-23T02:58:58.374Z,5.91
2019-03-23T02:59:58.545Z,5.76
2019-03-23T03:00:58.717Z,5.72
2019-03-23T03:01:58.886Z,5.71
2019-03-23T03:02:59.080Z,5.75
2019-03-23T03:03:59.226Z,5.80
2019-03-23T03:04:59.402Z,5.83
2019-03-23T03:05:59.576Z,5.87
2019-03-23T03:06:59.746Z,5.94
2019-03-23T03:07:59.923Z,5.93
2019-03-23T03:09:00.093Z,5.97
2019-03-23T03:10:00.419Z,5.99
2019-03-23T03:11:00.436Z,6.07
2019-03-23T03:12:00.650Z,6.02
2019-03-23T03:13:00.785Z,5.94
2019-03-23T03:14:00.963Z,6.02
2019-03-23T03:15:01.130Z,5.93
2019-03-23T03:16:01.319Z,6.09
2019-03-23T03:17:01.477Z,6.08
2019-03-23T03:18:01.634Z,6.09
2019-03-23T03:19:01.817Z,6.09
2019-03-23T03:20:01.977Z,6.04
2019-03-23T03:21:02.125Z,5.98
2019-03-23T03:22:02.288Z,6.08
2019-03-23T03:23:02.457Z,5.94
2019-03-23T03:24:02.615Z,5.99
2019-03-23T03:25:02.794Z,5.82
2019-03-23T03:26:02.966Z,5.69
2019-03-23T03:27:03.139Z,5.59
2019-03-23T03:28:03.312Z,5.61
2019-03-23T03:29:03.478Z,5.65
2019-03-23T03:30:03.648Z,5.65
2019-03-23T03:31:03.861Z,5.66
2019-03-23T03:32:03.986Z,5.71
2019-03-23T03:33:04.177Z,5.73
2019-03-23T03:34:04.313Z,5.73
2019-03-23T03:35:04.505Z,5.69
2019-03-23T03:36:04.655Z,5.68
2019-03-23T03:37:04.826Z,5.76
2019-03-23T03:38:04.998Z,5.73
2019-03-23T03:39:05.171Z,5.80
2019-03-23T03:40:05.343Z,5.82
2019-03-23T03:41:05.526Z,5.84
2019-03-23T03:42:05.689Z,5.73
2019-03-23T03:43:05.869Z,5.46
2019-03-23T03:44:06.033Z,5.36
2019-03-23T03:45:06.206Z,5.23
2019-03-23T03:46:06.383Z,4.93
2019-03-23T03:47:06.555Z,4.97
2019-03-23T03:48:06.721Z,5.04
2019-03-23T03:49:12.778Z,5.23
2019-03-23T03:50:07.067Z,5.15
2019-03-23T03:51:07.235Z,5.12
2019-03-23T03:52:07.410Z,5.05
2019-03-23T03:53:07.577Z,5.12
2019-03-23T03:54:07.750Z,5.05
2019-03-23T03:55:07.921Z,5.12
2019-03-23T03:56:08.086Z,4.99
2019-03-23T03:57:08.271Z,4.96
2019-03-23T03:58:08.454Z,5.08
2019-03-23T03:59:08.615Z,5.02
2019-03-23T04:00:08.797Z,5.10
2019-03-23T04:01:08.949Z,5.12
2019-03-23T04:02:09.126Z,5.29
2019-03-23T04:03:09.311Z,5.29
2019-03-23T04:04:09.481Z,5.25
2019-03-23T04:05:09.646Z,5.38
2019-03-23T04:06:09.819Z,5.36
2019-03-23T04:07:09.988Z,5.38
2019-03-23T04:08:11.840Z,5.39
2019-03-23T04:09:10.328Z,5.41
2019-03-23T04:10:10.518Z,5.43
2019-03-23T04:11:10.704Z,5.48
2019-03-23T04:12:10.854Z,5.41
2019-03-23T04:13:11.027Z,5.50
2019-03-23T04:14:11.192Z,5.65
2019-03-23T04:15:11.361Z,5.56
2019-03-23T04:16:11.547Z,5.69
2019-03-23T04:17:11.714Z,5.72
2019-03-23T04:18:11.877Z,5.73
2019-03-23T04:19:12.048Z,5.65
2019-03-23T04:20:12.211Z,5.71
2019-03-23T04:21:12.392Z,5.68
2019-03-23T04:22:12.556Z,5.56
2019-03-23T04:23:12.730Z,5.57
2019-03-23T04:24:12.974Z,5.65
2019-03-23T04:25:13.077Z,5.65
2019-03-23T04:26:13.236Z,5.71
2019-03-23T04:27:13.411Z,5.73
2019-03-23T04:28:13.582Z,5.75
2019-03-23T04:29:13.755Z,5.71
2019-03-23T04:30:13.929Z,5.61
2019-03-23T04:31:14.094Z,5.65
2019-03-23T04:32:14.278Z,5.62
2019-03-23T04:33:14.437Z,5.62
2019-03-23T04:34:14.614Z,5.50
2019-03-23T04:35:14.785Z,5.57
2019-03-23T04:36:14.957Z,5.46
2019-03-23T04:37:15.133Z,5.41
2019-03-23T04:38:22.691Z,5.51
2019-03-23T04:39:15.472Z,5.46
2019-03-23T04:40:15.638Z,5.39
2019-03-23T04:41:15.813Z,5.38
2019-03-23T04:42:15.980Z,5.36
2019-03-23T04:43:16.155Z,5.36
2019-03-23T04:44:16.330Z,5.43
2019-03-23T04:45:16.508Z,5.43
2019-03-23T04:46:16.672Z,5.44
2019-03-23T04:47:16.855Z,5.53
2019-03-23T04:48:17.027Z,5.59
2019-03-23T04:49:17.198Z,5.44
2019-03-23T04:50:17.372Z,5.47
2019-03-23T04:51:17.581Z,5.36
2019-03-23T04:52:17.706Z,5.18
2019-03-23T04:53:17.875Z,5.17
2019-03-23T04:54:18.043Z,5.23
2019-03-23T04:55:18.217Z,5.15
2019-03-23T04:56:18.387Z,5.11
2019-03-23T04:57:18.558Z,5.15
2019-03-23T04:58:18.724Z,5.07
2019-03-23T04:59:18.924Z,4.99
2019-03-23T05:00:19.069Z,5.05
2019-03-23T05:01:19.235Z,5.05
2019-03-23T05:02:19.408Z,4.93
2019-03-23T05:03:19.583Z,4.99
2019-03-23T05:04:19.752Z,4.99
2019-03-23T05:05:19.923Z,5.12
2019-03-23T05:06:20.092Z,5.08
2019-03-23T05:07:20.266Z,5.12
2019-03-23T05:08:20.434Z,5.17
2019-03-23T05:09:20.613Z,5.15
2019-03-23T05:10:20.777Z,5.33
2019-03-23T05:11:20.948Z,5.32
2019-03-23T05:12:21.117Z,5.26
2019-03-23T05:13:21.288Z,5.21
2019-03-23T05:14:21.461Z,5.26
2019-03-23T05:15:21.631Z,5.25
2019-03-23T05:16:21.810Z,5.26
2019-03-23T05:17:21.992Z,5.20
2019-03-23T05:18:22.149Z,5.20
2019-03-23T05:19:22.317Z,5.28
2019-03-23T05:20:22.480Z,5.32
2019-03-23T05:21:22.649Z,5.23
2019-03-23T05:22:22.823Z,5.20
2019-03-23T05:23:22.989Z,5.20
2019-03-23T05:24:23.163Z,5.23
2019-03-23T05:25:23.325Z,5.29
2019-03-23T05:26:23.506Z,5.29
2019-03-23T05:27:23.658Z,5.23
2019-03-23T05:28:23.828Z,5.28
2019-03-23T05:29:23.995Z,5.36
2019-03-23T05:30:24.168Z,5.33
2019-03-23T05:31:24.337Z,5.23
2019-03-23T05:32:24.501Z,5.25
2019-03-23T05:33:24.668Z,5.35
2019-03-23T05:34:24.839Z,5.32
2019-03-23T05:35:25.012Z,5.35
2019-03-23T05:36:25.183Z,5.17
2019-03-23T05:37:25.334Z,5.15
2019-03-23T05:38:25.504Z,4.99
2019-03-23T05:39:25.678Z,5.17
2019-03-23T05:40:25.850Z,5.21
2019-03-23T05:41:26.030Z,5.23
2019-03-23T05:42:26.197Z,5.29
2019-03-23T05:43:26.368Z,5.21
2019-03-23T05:44:26.537Z,5.28
2019-03-23T05:45:26.706Z,5.44
2019-03-23T05:46:26.874Z,5.47
2019-03-23T05:47:27.050Z,5.46
2019-03-23T05:48:27.214Z,5.47
2019-03-23T05:49:27.385Z,5.46
2019-03-23T05:50:27.554Z,5.47
2019-03-23T05:51:27.735Z,5.62
2019-03-23T05:52:27.911Z,5.59
2019-03-23T05:53:28.092Z,5.65
2019-03-23T05:54:28.238Z,5.59
2019-03-23T05:55:28.400Z,5.64
2019-03-23T05:56:28.574Z,5.68
2019-03-23T05:57:28.750Z,5.80
2019-03-23T05:58:28.906Z,5.93
2019-03-23T05:59:29.085Z,5.94
2019-03-23T06:00:29.257Z,6.08
2019-03-23T06:01:29.424Z,5.94
2019-03-23T06:02:29.593Z,6.05
2019-03-23T06:03:29.770Z,6.08
2019-03-23T06:04:29.951Z,5.98
2019-03-23T06:05:30.115Z,6.07
2019-03-23T06:06:30.287Z,6.11
2019-03-23T06:07:30.469Z,6.22
2019-03-23T06:08:30.645Z,6.12
2019-03-23T06:09:30.820Z,6.20
2019-03-23T06:10:30.973Z,6.49
2019-03-23T06:11:31.148Z,6.67
2019-03-23T06:12:31.302Z,7.10
2019-03-23T06:13:31.468Z,7.50
2019-03-23T06:14:31.638Z,7.93
2019-03-23T06:15:31.813Z,8.30
2019-03-23T06:16:31.986Z,8.99
2019-03-23T06:17:32.151Z,9.32
2019-03-23T06:18:32.339Z,9.48
2019-03-23T06:19:32.489Z,9.66
2019-03-23T06:20:32.662Z,9.98
2019-03-23T06:21:32.833Z,10.20
2019-03-23T06:22:33.005Z,9.98
2019-03-23T06:23:33.196Z,10.42
2019-03-23T06:24:33.342Z,10.71
2019-03-23T06:25:34.518Z,10.99
2019-03-23T06:26:33.678Z,11.17
2019-03-23T06:27:33.852Z,11.44
2019-03-23T06:28:34.032Z,11.86
2019-03-23T06:29:34.199Z,11.95
2019-03-23T06:30:34.372Z,11.43
2019-03-23T06:31:34.557Z,11.75
2019-03-23T06:32:34.730Z,12.02
2019-03-23T06:33:34.912Z,11.91
2019-03-23T06:34:35.094Z,11.72
2019-03-23T06:35:35.278Z,11.97
2019-03-23T06:36:35.446Z,12.20
2019-03-23T06:37:35.618Z,12.53
2019-03-23T06:38:35.798Z,12.60
2019-03-23T06:39:36.004Z,12.45
2019-03-23T06:40:36.150Z,12.21
2019-03-23T06:41:36.325Z,12.55
2019-03-23T06:42:36.513Z,12.42
2019-03-23T06:43:36.682Z,12.36
2019-03-23T06:44:36.856Z,12.40
2019-03-23T06:45:37.026Z,12.43
2019-03-23T06:46:37.198Z,12.13
2019-03-23T06:47:37.363Z,12.27
2019-03-23T06:48:37.544Z,12.24
2019-03-23T06:49:37.721Z,12.67
2019-03-23T06:50:37.872Z,12.75
2019-03-23T06:51:38.035Z,13.04
2019-03-23T06:52:38.207Z,13.18
2019-03-23T06:53:38.415Z,13.42
2019-03-23T06:54:38.590Z,13.37
2019-03-23T06:55:38.772Z,13.60
2019-03-23T06:56:38.950Z,13.85
2019-03-23T06:57:39.145Z,14.12
2019-03-23T06:58:39.320Z,14.30
2019-03-23T06:59:39.507Z,14.32
2019-03-23T07:00:39.673Z,13.95
2019-03-23T07:01:39.842Z,13.86
2019-03-23T07:02:40.008Z,13.83
2019-03-23T07:03:40.186Z,13.77
2019-03-23T07:04:40.372Z,13.90
2019-03-23T07:05:40.554Z,14.12
2019-03-23T07:06:40.732Z,13.96
2019-03-23T07:07:40.913Z,13.97
2019-03-23T07:08:41.095Z,13.95
2019-03-23T07:09:41.259Z,14.22
2019-03-23T07:10:41.441Z,14.36
2019-03-23T07:11:41.618Z,14.14
2019-03-23T07:12:41.791Z,13.95
2019-03-23T07:13:41.973Z,13.95
2019-03-23T07:14:42.159Z,13.86
2019-03-23T07:15:42.355Z,13.19
2019-03-23T07:16:42.525Z,13.49
2019-03-23T07:17:42.706Z,13.57
2019-03-23T07:18:42.885Z,13.53
2019-03-23T07:19:43.059Z,13.44
2019-03-23T07:20:43.233Z,13.52
2019-03-23T07:21:43.418Z,13.23
2019-03-23T07:22:43.613Z,13.44
2019-03-23T07:23:43.782Z,13.77
2019-03-23T07:24:43.965Z,13.85
2019-03-23T07:25:44.147Z,13.81
2019-03-23T07:26:44.358Z,13.90
2019-03-23T07:27:44.496Z,13.93
2019-03-23T07:28:44.661Z,14.11
2019-03-23T07:29:44.835Z,14.41
2019-03-23T07:30:45.011Z,13.89
2019-03-23T07:31:45.192Z,14.04
2019-03-23T07:32:45.373Z,14.35
2019-03-23T07:33:45.555Z,14.41
2019-03-23T07:34:45.724Z,14.07
2019-03-23T07:35:45.937Z,13.46
2019-03-23T07:36:46.072Z,13.89
2019-03-23T07:37:46.248Z,13.85
2019-03-23T07:38:46.434Z,14.04
2019-03-23T07:39:46.605Z,14.29
2019-03-23T07:40:46.789Z,14.47
2019-03-23T07:41:46.969Z,14.69
2019-03-23T07:42:47.147Z,14.65
2019-03-23T07:43:47.318Z,13.81
2019-03-23T07:44:47.491Z,14.07
2019-03-23T07:45:47.658Z,14.35
2019-03-23T07:46:47.849Z,14.29
2019-03-23T07:47:48.026Z,14.20
2019-03-23T07:48:48.204Z,13.63
2019-03-23T07:49:48.377Z,13.44
2019-03-23T07:50:48.564Z,13.79
2019-03-23T07:51:48.733Z,13.71
2019-03-23T07:52:48.912Z,14.05
2019-03-23T07:53:49.099Z,14.54
2019-03-23T07:54:49.273Z,14.55
2019-03-23T07:55:49.481Z,14.94
2019-03-23T07:56:49.623Z,15.21
2019-03-23T07:57:49.795Z,15.31
2019-03-23T07:58:49.973Z,15.21
2019-03-23T07:59:50.155Z,15.35
2019-03-23T08:00:50.328Z,15.19
2019-03-23T08:01:50.493Z,15.33
2019-03-23T08:02:50.682Z,15.64
2019-03-23T08:03:50.867Z,15.64
2019-03-23T08:04:51.082Z,16.02
2019-03-23T08:05:51.184Z,15.54
2019-03-23T08:06:51.375Z,15.98
2019-03-23T08:07:51.535Z,16.09
2019-03-23T08:08:51.714Z,16.10
2019-03-23T08:09:51.894Z,16.04
2019-03-23T08:10:52.079Z,16.13
2019-03-23T08:11:52.264Z,16.05
2019-03-23T08:12:52.437Z,16.24
2019-03-23T08:13:52.587Z,16.12
2019-03-23T08:14:52.772Z,16.08
2019-03-23T08:15:52.959Z,16.47
2019-03-23T08:16:53.134Z,16.61
2019-03-23T08:17:53.337Z,16.84
2019-03-23T08:18:53.502Z,17.01
2019-03-23T08:19:53.658Z,17.27
2019-03-23T08:20:53.830Z,17.23
2019-03-23T08:21:54.006Z,17.05
2019-03-23T08:22:54.186Z,17.11
2019-03-23T08:23:54.356Z,17.11
2019-03-23T08:24:54.577Z,17.08
2019-03-23T08:25:54.717Z,17.05
2019-03-23T08:26:54.893Z,17.15
2019-03-23T08:27:55.087Z,17.29
2019-03-23T08:28:55.305Z,17.51
2019-03-23T08:29:55.436Z,17.79
2019-03-23T08:30:55.581Z,17.85
2019-03-23T08:31:55.857Z,18.01
2019-03-23T08:32:55.968Z,18.05
2019-03-23T08:33:56.148Z,18.23
2019-03-23T08:34:58.085Z,18.18
2019-03-23T08:35:56.514Z,18.34
2019-03-23T08:36:56.657Z,18.66
2019-03-23T08:37:56.853Z,18.62
2019-03-23T08:38:57.019Z,18.60
2019-03-23T08:39:57.207Z,18.65
2019-03-23T08:40:57.358Z,18.83
2019-03-23T08:41:57.553Z,19.02
2019-03-23T08:42:57.698Z,19.02
2019-03-23T08:43:57.867Z,18.75
2019-03-23T08:44:58.019Z,18.73
2019-03-23T08:45:58.187Z,18.92
2019-03-23T08:46:58.353Z,19.16
2019-03-23T08:47:58.518Z,18.68
2019-03-23T08:48:58.698Z,18.84
2019-03-23T08:49:59.719Z,19.18
2019-03-23T08:50:59.057Z,19.36
2019-03-23T08:51:59.248Z,19.22
2019-03-23T08:52:59.386Z,19.33
2019-03-23T08:53:59.569Z,19.67
2019-03-23T08:54:59.729Z,19.48
2019-03-23T08:55:59.909Z,19.40
2019-03-23T08:57:00.062Z,19.18
2019-03-23T08:58:00.218Z,18.96
2019-03-23T08:59:00.383Z,19.11
2019-03-23T09:00:00.575Z,18.75
2019-03-23T09:01:00.741Z,18.43
2019-03-23T09:02:00.910Z,18.31
2019-03-23T09:03:01.097Z,18.04
2019-03-23T09:04:01.258Z,17.34
2019-03-23T09:05:01.448Z,17.54
2019-03-23T09:06:01.594Z,17.85
2019-03-23T09:07:01.807Z,18.25
2019-03-23T09:08:01.979Z,18.33
2019-03-23T09:09:02.140Z,18.50
2019-03-23T09:10:02.329Z,18.62
2019-03-23T09:11:02.493Z,18.53
2019-03-23T09:12:02.647Z,18.52
2019-03-23T09:13:02.879Z,18.92
2019-03-23T09:14:02.973Z,18.90
2019-03-23T09:15:03.161Z,18.83
2019-03-23T09:16:03.491Z,19.40
2019-03-23T09:17:03.583Z,19.19
2019-03-23T09:18:03.671Z,19.45
2019-03-23T09:19:03.827Z,18.93
2019-03-23T09:20:04.130Z,19.22
2019-03-23T09:21:04.288Z,19.44
2019-03-23T09:22:04.453Z,19.66
2019-03-23T09:23:04.672Z,20.06
2019-03-23T09:24:04.828Z,20.19
2019-03-23T09:25:05.048Z,20.04
2019-03-23T09:26:05.210Z,19.62
2019-03-23T09:27:05.368Z,19.89
2019-03-23T09:28:05.540Z,19.76
2019-03-23T09:29:05.711Z,19.49
2019-03-23T09:30:05.940Z,19.62
2019-03-23T09:31:06.085Z,19.62
2019-03-23T09:32:06.266Z,20.06
2019-03-23T09:33:06.461Z,20.09
2019-03-23T09:34:06.612Z,20.09
2019-03-23T09:35:06.804Z,20.52
2019-03-23T09:36:06.946Z,20.78
2019-03-23T09:37:07.128Z,21.00
2019-03-23T09:38:07.287Z,21.14
2019-03-23T09:39:07.475Z,21.39
2019-03-23T09:40:11.125Z,21.32
2019-03-23T09:41:07.817Z,21.21
2019-03-23T09:42:08.045Z,21.43
2019-03-23T09:43:08.213Z,21.33
2019-03-23T09:44:08.338Z,21.11
2019-03-23T09:45:08.516Z,21.09
2019-03-23T09:46:08.739Z,21.03
2019-03-23T09:47:08.872Z,20.87
2019-03-23T09:48:09.034Z,21.06
2019-03-23T09:49:09.243Z,21.03
2019-03-23T09:50:09.463Z,21.12
2019-03-23T09:51:09.608Z,21.32
2019-03-23T09:52:09.831Z,21.07
2019-03-23T09:53:09.987Z,21.27
2019-03-23T09:54:10.237Z,21.45
2019-03-23T09:55:10.404Z,21.72
2019-03-23T09:56:10.591Z,21.96
2019-03-23T09:57:10.789Z,22.23
2019-03-23T09:58:10.964Z,22.06
2019-03-23T09:59:11.151Z,21.14
2019-03-23T10:00:11.377Z,20.82
2019-03-23T10:01:11.535Z,20.72
2019-03-23T10:02:11.655Z,20.96
2019-03-23T10:03:11.823Z,20.13
2019-03-23T10:04:12.012Z,20.16
2019-03-23T10:05:12.179Z,20.60
2019-03-23T10:06:12.355Z,21.07
2019-03-23T10:07:12.509Z,21.36
2019-03-23T10:08:12.685Z,21.51
2019-03-23T10:09:12.841Z,21.64
2019-03-23T10:10:21.203Z,21.80
2019-03-23T10:11:13.300Z,21.79
2019-03-23T10:12:13.427Z,21.99
2019-03-23T10:13:13.641Z,21.98
2019-03-23T10:14:13.809Z,21.83
2019-03-23T10:15:13.972Z,22.04
2019-03-23T10:16:14.138Z,21.92
2019-03-23T10:17:14.365Z,22.20
2019-03-23T10:18:14.511Z,22.63
2019-03-23T10:19:14.677Z,22.70
2019-03-23T10:20:14.891Z,22.75
2019-03-23T10:21:15.120Z,22.81
2019-03-23T10:22:15.327Z,22.39
2019-03-23T10:23:15.482Z,22.35
2019-03-23T10:24:15.629Z,22.54
2019-03-23T10:25:15.804Z,21.46
2019-03-23T10:26:15.976Z,21.36
2019-03-23T10:27:16.155Z,21.22
2019-03-23T10:28:16.330Z,21.54
2019-03-23T10:29:16.501Z,21.62
2019-03-23T10:30:16.683Z,21.98
2019-03-23T10:31:16.842Z,22.10
2019-03-23T10:32:17.019Z,22.33
2019-03-23T10:33:17.260Z,22.78
2019-03-23T10:34:17.381Z,22.83
2019-03-23T10:35:17.565Z,21.77
2019-03-23T10:36:17.756Z,20.75
2019-03-23T10:37:17.941Z,19.92
2019-03-23T10:38:18.124Z,20.03
2019-03-23T10:39:18.270Z,20.22
2019-03-23T10:40:18.447Z,20.40
2019-03-23T10:41:18.637Z,20.92
2019-03-23T10:42:18.826Z,21.24
2019-03-23T10:43:19.018Z,20.93
2019-03-23T10:44:19.177Z,21.54
2019-03-23T10:45:19.363Z,21.83
2019-03-23T10:46:19.522Z,22.18
2019-03-23T10:47:19.802Z,21.67
2019-03-23T10:48:19.890Z,21.52
2019-03-23T10:49:20.040Z,21.02
2019-03-23T10:50:20.207Z,20.80
2019-03-23T10:51:20.385Z,20.26
2019-03-23T10:52:20.563Z,20.06
2019-03-23T10:53:23.269Z,19.74
2019-03-23T10:54:20.893Z,18.77
2019-03-23T10:55:21.099Z,18.95
2019-03-23T10:56:21.281Z,19.02
2019-03-23T10:57:21.483Z,19.52
2019-03-23T10:58:21.614Z,19.33
2019-03-23T10:59:21.784Z,18.88
2019-03-23T11:00:21.936Z,18.88
2019-03-23T11:01:22.153Z,19.52
2019-03-23T11:02:22.336Z,20.13
2019-03-23T11:03:22.532Z,21.09
2019-03-23T11:04:22.667Z,21.80
2019-03-23T11:05:22.864Z,22.00
2019-03-23T11:06:23.012Z,22.68
2019-03-23T11:07:23.247Z,22.80
2019-03-23T11:08:23.363Z,23.09
2019-03-23T11:09:23.541Z,23.36
2019-03-23T11:10:23.720Z,23.74
2019-03-23T11:11:24.170Z,23.83
2019-03-23T11:12:24.151Z,23.73
2019-03-23T11:13:24.348Z,23.58
2019-03-23T11:14:24.451Z,23.74
2019-03-23T11:15:24.677Z,24.17
2019-03-23T11:16:24.854Z,23.63
2019-03-23T11:17:25.007Z,23.69
2019-03-23T11:18:25.249Z,23.87
2019-03-23T11:19:25.396Z,23.21
2019-03-23T11:20:25.579Z,23.54
2019-03-23T11:21:25.749Z,23.31
2019-03-23T11:22:25.940Z,23.08
2019-03-23T11:23:26.084Z,23.34
2019-03-23T11:24:26.281Z,23.32
2019-03-23T11:25:26.442Z,23.76
2019-03-23T11:26:28.159Z,23.86
2019-03-23T11:27:26.786Z,23.73
2019-03-23T11:28:28.534Z,23.65
2019-03-23T11:29:27.160Z,23.59
2019-03-23T11:30:27.787Z,23.32
2019-03-23T11:31:27.580Z,23.23
2019-03-23T11:32:27.726Z,22.96
2019-03-23T11:33:27.929Z,22.83
2019-03-23T11:34:28.160Z,22.63
2019-03-23T11:35:28.278Z,22.22
2019-03-23T11:36:28.498Z,21.95
2019-03-23T11:37:28.773Z,22.00
2019-03-23T11:38:28.841Z,22.02
2019-03-23T11:39:29.043Z,22.10
2019-03-23T11:40:29.276Z,22.22
2019-03-23T11:41:29.442Z,22.25
2019-03-23T11:42:29.643Z,22.28
2019-03-23T11:43:29.779Z,21.88
2019-03-23T11:44:29.964Z,21.29
2019-03-23T11:45:30.113Z,21.60
2019-03-23T11:46:30.334Z,21.48
2019-03-23T11:47:30.522Z,21.35
2019-03-23T11:48:30.635Z,21.52
2019-03-23T11:49:30.836Z,21.43
2019-03-23T11:50:30.985Z,21.32
2019-03-23T11:51:31.226Z,21.33
2019-03-23T11:52:31.391Z,21.35
2019-03-23T11:53:31.578Z,21.43
2019-03-23T11:54:31.793Z,21.52
2019-03-23T11:55:31.930Z,21.88
2019-03-23T11:56:32.098Z,21.85
2019-03-23T11:57:32.260Z,21.66
2019-03-23T11:58:32.437Z,21.50
2019-03-23T11:59:32.601Z,21.57
2019-03-23T12:00:32.786Z,21.72
2019-03-23T12:01:32.961Z,21.96
2019-03-23T12:02:33.131Z,21.98
2019-03-23T12:03:33.303Z,21.95
2019-03-23T12:04:33.477Z,21.95
2019-03-23T12:05:33.639Z,21.82
2019-03-23T12:06:33.814Z,21.46
2019-03-23T12:07:34.032Z,20.70
2019-03-23T12:08:34.156Z,20.63
2019-03-23T12:09:34.342Z,20.75
2019-03-23T12:10:34.557Z,21.02
2019-03-23T12:11:34.682Z,21.18
2019-03-23T12:12:34.857Z,21.52
2019-03-23T12:13:35.070Z,21.79
2019-03-23T12:14:35.200Z,21.57
2019-03-23T12:15:35.371Z,21.61
2019-03-23T12:16:35.539Z,21.52
2019-03-23T12:17:35.714Z,21.45
2019-03-23T12:18:35.898Z,21.51
2019-03-23T12:19:36.060Z,21.50
2019-03-23T12:20:36.250Z,21.52
2019-03-23T12:21:36.392Z,21.43
2019-03-23T12:22:36.605Z,21.03
2019-03-23T12:23:36.752Z,20.65
2019-03-23T12:24:36.925Z,20.66
2019-03-23T12:25:37.103Z,20.70
2019-03-23T12:26:37.261Z,21.12
2019-03-23T12:27:37.443Z,21.17
2019-03-23T12:28:37.642Z,21.29
2019-03-23T12:29:37.815Z,21.46
2019-03-23T12:30:38.010Z,21.60
2019-03-23T12:31:38.141Z,21.67
2019-03-23T12:32:38.321Z,21.29
2019-03-23T12:33:38.493Z,21.20
2019-03-23T12:34:38.670Z,21.22
2019-03-23T12:35:38.913Z,21.52
2019-03-23T12:36:39.043Z,21.06
2019-03-23T12:37:39.238Z,20.96
2019-03-23T12:38:39.405Z,21.03
2019-03-23T12:39:39.521Z,21.12
2019-03-23T12:40:39.698Z,21.25
2019-03-23T12:41:39.897Z,21.25
2019-03-23T12:42:40.082Z,21.11
2019-03-23T12:43:40.213Z,21.37
2019-03-23T12:44:40.395Z,21.52
2019-03-23T12:45:40.574Z,21.75
2019-03-23T12:46:48.192Z,21.75
2019-03-23T12:47:40.945Z,21.66
2019-03-23T12:48:41.137Z,21.39
2019-03-23T12:49:41.321Z,21.29
2019-03-23T12:50:41.496Z,21.09
2019-03-23T12:51:41.698Z,21.02
2019-03-23T12:52:41.820Z,21.12
2019-03-23T12:53:41.992Z,21.15
2019-03-23T12:54:42.157Z,21.14
2019-03-23T12:55:42.338Z,21.15
2019-03-23T12:56:42.507Z,21.17
2019-03-23T12:57:42.670Z,21.00
2019-03-23T12:58:42.869Z,21.02
2019-03-23T12:59:43.042Z,20.96
2019-03-23T13:00:43.202Z,20.82
2019-03-23T13:01:43.398Z,21.02
2019-03-23T13:02:43.550Z,21.07
2019-03-23T13:03:43.752Z,21.18
2019-03-23T13:04:43.944Z,21.24
2019-03-23T13:05:44.129Z,21.36
2019-03-23T13:06:44.291Z,21.22
2019-03-23T13:07:44.465Z,21.00